sensor_id;sensor_type;location;lat;lon;timestamp;temperature;humidity
37356;DHT22;48747;50.250;18.848;2024-02-26T00:00:34;5.90;99.90
37356;DHT22;48747;50.250;18.848;2024-02-26T00:02:37;5.90;99.90
37356;DHT22;48747;50.250;18.848;2024-02-26T00:04:42;6.00;99.90
37356;DHT22;48747;50.250;18.848;2024-02-26T00:06:45;5.90;99.90
37356;DHT22;48747;50.250;18.848;2024-02-26T00:08:48;5.90;99.90
37356;DHT22;48747;50.250;18.848;2024-02-26T00:10:51;5.90;99.90
37356;DHT22;48747;50.250;18.848;2024-02-26T00:12:54;5.90;99.90
37356;DHT22;48747;50.250;18.848;2024-02-26T00:14:57;5.80;99.90
37356;DHT22;48747;50.250;18.848;2024-02-26T00:17:00;5.80;99.90
37356;DHT22;48747;50.250;18.848;2024-02-26T00:19:03;5.80;99.90
37356;DHT22;48747;50.250;18.848;2024-02-26T00:21:06;5.70;99.90
37356;DHT22;48747;50.250;18.848;2024-02-26T00:23:09;5.70;99.90
37356;DHT22;48747;50.250;18.848;2024-02-26T00:25:36;5.70;99.90
37356;DHT22;48747;50.250;18.848;2024-02-26T00:27:45;5.70;99.90
37356;DHT22;48747;50.250;18.848;2024-02-26T00:29:48;5.60;99.90
37356;DHT22;48747;50.250;18.848;2024-02-26T00:31:51;5.60;99.90
37356;DHT22;48747;50.250;18.848;2024-02-26T00:33:54;5.60;99.90
37356;DHT22;48747;50.250;18.848;2024-02-26T00:35:57;5.60;99.90
37356;DHT22;48747;50.250;18.848;2024-02-26T00:38:00;5.50;99.90
37356;DHT22;48747;50.250;18.848;2024-02-26T00:40:05;5.40;99.90
37356;DHT22;48747;50.250;18.848;2024-02-26T00:42:09;5.40;99.90
37356;DHT22;48747;50.250;18.848;2024-02-26T00:44:12;5.30;99.90
37356;DHT22;48747;50.250;18.848;2024-02-26T00:46:15;5.30;99.90
37356;DHT22;48747;50.250;18.848;2024-02-26T00:48:18;5.20;99.90
37356;DHT22;48747;50.250;18.848;2024-02-26T00:50:21;5.20;99.90
37356;DHT22;48747;50.250;18.848;2024-02-26T00:52:24;5.10;99.90
37356;DHT22;48747;50.250;18.848;2024-02-26T00:54:27;5.20;99.90
37356;DHT22;48747;50.250;18.848;2024-02-26T00:56:30;5.20;99.90
37356;DHT22;48747;50.250;18.848;2024-02-26T00:58:33;5.20;99.90
37356;DHT22;48747;50.250;18.848;2024-02-26T01:00:36;5.30;99.90
37356;DHT22;48747;50.250;18.848;2024-02-26T01:02:39;5.40;99.90
37356;DHT22;48747;50.250;18.848;2024-02-26T01:04:43;5.40;99.90
37356;DHT22;48747;50.250;18.848;2024-02-26T01:06:46;5.50;99.90
37356;DHT22;48747;50.250;18.848;2024-02-26T01:08:49;5.50;99.90
37356;DHT22;48747;50.250;18.848;2024-02-26T01:10:52;5.50;99.90
37356;DHT22;48747;50.250;18.848;2024-02-26T01:12:55;5.50;99.90
37356;DHT22;48747;50.250;18.848;2024-02-26T01:14:58;5.60;99.90
37356;DHT22;48747;50.250;18.848;2024-02-26T01:17:02;5.60;99.90
37356;DHT22;48747;50.250;18.848;2024-02-26T01:19:05;5.60;99.90
37356;DHT22;48747;50.250;18.848;2024-02-26T01:21:08;5.60;99.90
37356;DHT22;48747;50.250;18.848;2024-02-26T01:23:12;5.60;99.90
37356;DHT22;48747;50.250;18.848;2024-02-26T01:25:15;5.60;99.90
37356;DHT22;48747;50.250;18.848;2024-02-26T01:27:18;5.60;99.90
37356;DHT22;48747;50.250;18.848;2024-02-26T01:29:21;5.60;99.90
37356;DHT22;48747;50.250;18.848;2024-02-26T01:31:24;5.50;99.90
37356;DHT22;48747;50.250;18.848;2024-02-26T01:33:27;5.50;99.90
37356;DHT22;48747;50.250;18.848;2024-02-26T01:35:30;5.50;99.90
37356;DHT22;48747;50.250;18.848;2024-02-26T01:37:33;5.40;99.90
37356;DHT22;48747;50.250;18.848;2024-02-26T01:39:36;5.40;99.90
37356;DHT22;48747;50.250;18.848;2024-02-26T01:41:39;5.30;99.90
37356;DHT22;48747;50.250;18.848;2024-02-26T01:43:43;5.20;99.90
37356;DHT22;48747;50.250;18.848;2024-02-26T01:45:46;5.20;99.90
37356;DHT22;48747;50.250;18.848;2024-02-26T01:47:50;5.20;99.90
37356;DHT22;48747;50.250;18.848;2024-02-26T01:49:54;5.20;99.90
37356;DHT22;48747;50.250;18.848;2024-02-26T01:51:58;5.10;99.90
37356;DHT22;48747;50.250;18.848;2024-02-26T01:54:02;5.10;99.90
37356;DHT22;48747;50.250;18.848;2024-02-26T01:56:07;5.10;99.90
37356;DHT22;48747;50.250;18.848;2024-02-26T01:58:10;5.10;99.90
37356;DHT22;48747;50.250;18.848;2024-02-26T02:00:15;5.10;99.90
37356;DHT22;48747;50.250;18.848;2024-02-26T02:02:19;5.10;99.90
37356;DHT22;48747;50.250;18.848;2024-02-26T02:04:23;5.10;99.90
37356;DHT22;48747;50.250;18.848;2024-02-26T02:06:27;5.10;99.90
37356;DHT22;48747;50.250;18.848;2024-02-26T02:08:30;5.10;99.90
37356;DHT22;48747;50.250;18.848;2024-02-26T02:10:33;5.10;99.90
37356;DHT22;48747;50.250;18.848;2024-02-26T02:12:37;5.10;99.90
37356;DHT22;48747;50.250;18.848;2024-02-26T02:14:41;5.10;99.90
37356;DHT22;48747;50.250;18.848;2024-02-26T02:16:45;5.10;99.90
37356;DHT22;48747;50.250;18.848;2024-02-26T02:18:48;5.10;99.90
37356;DHT22;48747;50.250;18.848;2024-02-26T02:20:51;5.20;99.90
37356;DHT22;48747;50.250;18.848;2024-02-26T02:22:54;5.10;99.90
37356;DHT22;48747;50.250;18.848;2024-02-26T02:24:57;5.00;99.90
37356;DHT22;48747;50.250;18.848;2024-02-26T02:27:01;5.00;99.90
37356;DHT22;48747;50.250;18.848;2024-02-26T02:29:04;5.10;99.90
37356;DHT22;48747;50.250;18.848;2024-02-26T02:31:08;5.10;99.90
37356;DHT22;48747;50.250;18.848;2024-02-26T02:33:11;5.10;99.90
37356;DHT22;48747;50.250;18.848;2024-02-26T02:35:16;5.10;99.90
37356;DHT22;48747;50.250;18.848;2024-02-26T02:37:19;5.10;99.90
37356;DHT22;48747;50.250;18.848;2024-02-26T02:39:22;5.00;99.90
37356;DHT22;48747;50.250;18.848;2024-02-26T02:41:25;5.00;99.90
37356;DHT22;48747;50.250;18.848;2024-02-26T02:43:30;5.10;99.90
37356;DHT22;48747;50.250;18.848;2024-02-26T02:45:33;5.00;99.90
37356;DHT22;48747;50.250;18.848;2024-02-26T02:47:37;5.00;99.90
37356;DHT22;48747;50.250;18.848;2024-02-26T02:49:40;5.00;99.90
37356;DHT22;48747;50.250;18.848;2024-02-26T02:51:43;5.00;99.90
37356;DHT22;48747;50.250;18.848;2024-02-26T02:53:46;5.00;99.90
37356;DHT22;48747;50.250;18.848;2024-02-26T02:55:49;5.00;99.90
37356;DHT22;48747;50.250;18.848;2024-02-26T02:57:52;5.00;99.90
37356;DHT22;48747;50.250;18.848;2024-02-26T02:59:55;4.90;99.90
37356;DHT22;48747;50.250;18.848;2024-02-26T03:01:58;4.90;99.90
37356;DHT22;48747;50.250;18.848;2024-02-26T03:04:01;5.00;99.90
37356;DHT22;48747;50.250;18.848;2024-02-26T03:06:04;5.00;99.90
37356;DHT22;48747;50.250;18.848;2024-02-26T03:08:07;5.00;99.90
37356;DHT22;48747;50.250;18.848;2024-02-26T03:10:11;5.00;99.90
37356;DHT22;48747;50.250;18.848;2024-02-26T03:12:14;5.00;99.90
37356;DHT22;48747;50.250;18.848;2024-02-26T03:14:17;5.00;99.90
37356;DHT22;48747;50.250;18.848;2024-02-26T03:16:20;5.00;99.90
37356;DHT22;48747;50.250;18.848;2024-02-26T03:18:23;5.00;99.90
37356;DHT22;48747;50.250;18.848;2024-02-26T03:20:26;5.10;99.90
37356;DHT22;48747;50.250;18.848;2024-02-26T03:22:29;5.10;99.90
37356;DHT22;48747;50.250;18.848;2024-02-26T03:24:32;5.10;99.90
37356;DHT22;48747;50.250;18.848;2024-02-26T03:26:36;5.00;99.90
37356;DHT22;48747;50.250;18.848;2024-02-26T03:28:39;5.00;99.90
37356;DHT22;48747;50.250;18.848;2024-02-26T03:30:42;5.00;99.90
37356;DHT22;48747;50.250;18.848;2024-02-26T03:32:45;5.00;99.90
37356;DHT22;48747;50.250;18.848;2024-02-26T03:34:49;5.00;99.90
37356;DHT22;48747;50.250;18.848;2024-02-26T03:36:54;5.10;99.90
37356;DHT22;48747;50.250;18.848;2024-02-26T03:38:57;5.10;99.90
37356;DHT22;48747;50.250;18.848;2024-02-26T03:41:00;5.10;99.90
37356;DHT22;48747;50.250;18.848;2024-02-26T03:43:04;5.20;99.90
37356;DHT22;48747;50.250;18.848;2024-02-26T03:45:09;5.20;99.90
37356;DHT22;48747;50.250;18.848;2024-02-26T03:47:12;5.20;99.90
37356;DHT22;48747;50.250;18.848;2024-02-26T03:49:15;5.20;99.90
37356;DHT22;48747;50.250;18.848;2024-02-26T03:51:18;5.30;99.90
37356;DHT22;48747;50.250;18.848;2024-02-26T03:53:21;5.30;99.90
37356;DHT22;48747;50.250;18.848;2024-02-26T03:55:24;5.40;99.90
37356;DHT22;48747;50.250;18.848;2024-02-26T03:57:27;5.40;99.90
37356;DHT22;48747;50.250;18.848;2024-02-26T03:59:30;5.40;99.90
37356;DHT22;48747;50.250;18.848;2024-02-26T04:01:33;5.40;99.90
37356;DHT22;48747;50.250;18.848;2024-02-26T04:03:36;5.40;99.90
37356;DHT22;48747;50.250;18.848;2024-02-26T04:05:39;5.40;99.90
37356;DHT22;48747;50.250;18.848;2024-02-26T04:07:42;5.40;99.90
37356;DHT22;48747;50.250;18.848;2024-02-26T04:09:46;5.40;99.90
37356;DHT22;48747;50.250;18.848;2024-02-26T04:11:49;5.50;99.90
37356;DHT22;48747;50.250;18.848;2024-02-26T04:13:51;5.40;99.90
37356;DHT22;48747;50.250;18.848;2024-02-26T04:15:55;5.40;99.90
37356;DHT22;48747;50.250;18.848;2024-02-26T04:17:58;5.40;99.90
37356;DHT22;48747;50.250;18.848;2024-02-26T04:20:01;5.30;99.90
37356;DHT22;48747;50.250;18.848;2024-02-26T04:22:04;5.30;99.90
37356;DHT22;48747;50.250;18.848;2024-02-26T04:24:07;5.40;99.90
37356;DHT22;48747;50.250;18.848;2024-02-26T04:26:10;5.40;99.90
37356;DHT22;48747;50.250;18.848;2024-02-26T04:28:13;5.30;99.90
37356;DHT22;48747;50.250;18.848;2024-02-26T04:30:16;5.30;99.90
37356;DHT22;48747;50.250;18.848;2024-02-26T04:32:19;5.20;99.90
37356;DHT22;48747;50.250;18.848;2024-02-26T04:34:22;5.20;99.90
37356;DHT22;48747;50.250;18.848;2024-02-26T04:36:25;5.10;99.90
37356;DHT22;48747;50.250;18.848;2024-02-26T04:38:28;5.10;99.90
37356;DHT22;48747;50.250;18.848;2024-02-26T04:40:31;5.20;99.90
37356;DHT22;48747;50.250;18.848;2024-02-26T04:42:34;5.20;99.90
37356;DHT22;48747;50.250;18.848;2024-02-26T04:44:37;5.20;99.90
37356;DHT22;48747;50.250;18.848;2024-02-26T04:46:40;5.20;99.90
37356;DHT22;48747;50.250;18.848;2024-02-26T04:48:43;5.10;99.90
37356;DHT22;48747;50.250;18.848;2024-02-26T04:50:48;5.10;99.90
37356;DHT22;48747;50.250;18.848;2024-02-26T04:52:51;5.10;99.90
37356;DHT22;48747;50.250;18.848;2024-02-26T04:54:54;5.10;99.90
37356;DHT22;48747;50.250;18.848;2024-02-26T04:56:57;5.10;99.90
37356;DHT22;48747;50.250;18.848;2024-02-26T04:59:00;5.00;99.90
37356;DHT22;48747;50.250;18.848;2024-02-26T05:01:04;4.90;99.90
37356;DHT22;48747;50.250;18.848;2024-02-26T05:03:07;4.80;99.90
37356;DHT22;48747;50.250;18.848;2024-02-26T05:05:11;4.80;99.90
37356;DHT22;48747;50.250;18.848;2024-02-26T05:07:14;4.70;99.90
37356;DHT22;48747;50.250;18.848;2024-02-26T05:09:19;4.60;99.90
37356;DHT22;48747;50.250;18.848;2024-02-26T05:11:23;4.60;99.90
37356;DHT22;48747;50.250;18.848;2024-02-26T05:13:26;4.60;99.90
37356;DHT22;48747;50.250;18.848;2024-02-26T05:15:29;4.60;99.90
37356;DHT22;48747;50.250;18.848;2024-02-26T05:17:31;4.70;99.90
37356;DHT22;48747;50.250;18.848;2024-02-26T05:19:35;4.70;99.90
37356;DHT22;48747;50.250;18.848;2024-02-26T05:21:38;4.70;99.90
37356;DHT22;48747;50.250;18.848;2024-02-26T05:23:42;4.70;99.90
37356;DHT22;48747;50.250;18.848;2024-02-26T05:25:45;4.70;99.90
37356;DHT22;48747;50.250;18.848;2024-02-26T05:27:50;4.70;99.90
37356;DHT22;48747;50.250;18.848;2024-02-26T05:29:52;4.70;99.90
37356;DHT22;48747;50.250;18.848;2024-02-26T05:31:56;4.70;99.90
37356;DHT22;48747;50.250;18.848;2024-02-26T05:33:59;4.70;99.90
37356;DHT22;48747;50.250;18.848;2024-02-26T05:36:02;4.70;99.90
37356;DHT22;48747;50.250;18.848;2024-02-26T05:38:07;4.70;99.90
37356;DHT22;48747;50.250;18.848;2024-02-26T05:40:10;4.60;99.90
37356;DHT22;48747;50.250;18.848;2024-02-26T05:42:13;4.60;99.90
37356;DHT22;48747;50.250;18.848;2024-02-26T05:44:16;4.60;99.90
37356;DHT22;48747;50.250;18.848;2024-02-26T05:46:20;4.50;99.90
37356;DHT22;48747;50.250;18.848;2024-02-26T05:48:23;4.50;99.90
37356;DHT22;48747;50.250;18.848;2024-02-26T05:50:26;4.40;99.90
37356;DHT22;48747;50.250;18.848;2024-02-26T05:52:29;4.50;99.90
37356;DHT22;48747;50.250;18.848;2024-02-26T05:54:33;4.50;99.90
37356;DHT22;48747;50.250;18.848;2024-02-26T05:56:36;4.50;99.90
37356;DHT22;48747;50.250;18.848;2024-02-26T05:58:39;4.40;99.90
37356;DHT22;48747;50.250;18.848;2024-02-26T06:00:42;4.40;99.90
37356;DHT22;48747;50.250;18.848;2024-02-26T06:02:45;4.30;99.90
37356;DHT22;48747;50.250;18.848;2024-02-26T06:04:48;4.30;99.90
37356;DHT22;48747;50.250;18.848;2024-02-26T06:06:51;4.30;99.90
37356;DHT22;48747;50.250;18.848;2024-02-26T06:08:54;4.20;99.90
37356;DHT22;48747;50.250;18.848;2024-02-26T06:10:58;4.30;99.90
37356;DHT22;48747;50.250;18.848;2024-02-26T06:13:04;4.30;99.90
37356;DHT22;48747;50.250;18.848;2024-02-26T06:15:08;4.30;99.90
37356;DHT22;48747;50.250;18.848;2024-02-26T06:17:11;4.30;99.90
37356;DHT22;48747;50.250;18.848;2024-02-26T06:19:14;4.30;99.90
37356;DHT22;48747;50.250;18.848;2024-02-26T06:21:17;4.30;99.90
37356;DHT22;48747;50.250;18.848;2024-02-26T06:23:20;4.30;99.90
37356;DHT22;48747;50.250;18.848;2024-02-26T06:25:23;4.40;99.90
37356;DHT22;48747;50.250;18.848;2024-02-26T06:27:27;4.40;99.90
37356;DHT22;48747;50.250;18.848;2024-02-26T06:29:30;4.40;99.90
37356;DHT22;48747;50.250;18.848;2024-02-26T06:31:33;4.50;99.90
37356;DHT22;48747;50.250;18.848;2024-02-26T06:33:36;4.50;99.90
37356;DHT22;48747;50.250;18.848;2024-02-26T06:35:39;4.50;99.90
37356;DHT22;48747;50.250;18.848;2024-02-26T06:37:42;4.60;99.90
37356;DHT22;48747;50.250;18.848;2024-02-26T06:39:45;4.60;99.90
37356;DHT22;48747;50.250;18.848;2024-02-26T06:41:48;4.80;99.90
37356;DHT22;48747;50.250;18.848;2024-02-26T06:43:51;4.80;99.90
37356;DHT22;48747;50.250;18.848;2024-02-26T06:45:54;4.90;99.90
37356;DHT22;48747;50.250;18.848;2024-02-26T06:47:57;5.00;99.90
37356;DHT22;48747;50.250;18.848;2024-02-26T06:50:01;5.20;99.90
37356;DHT22;48747;50.250;18.848;2024-02-26T06:52:04;5.30;99.90
37356;DHT22;48747;50.250;18.848;2024-02-26T06:54:08;5.30;99.90
37356;DHT22;48747;50.250;18.848;2024-02-26T06:56:11;5.40;99.90
37356;DHT22;48747;50.250;18.848;2024-02-26T06:58:14;5.40;99.90
37356;DHT22;48747;50.250;18.848;2024-02-26T07:00:17;5.50;99.90
37356;DHT22;48747;50.250;18.848;2024-02-26T07:02:20;5.50;99.90
37356;DHT22;48747;50.250;18.848;2024-02-26T07:04:23;5.60;99.90
37356;DHT22;48747;50.250;18.848;2024-02-26T07:06:28;5.60;99.90
37356;DHT22;48747;50.250;18.848;2024-02-26T07:08:31;5.70;99.90
37356;DHT22;48747;50.250;18.848;2024-02-26T07:10:34;5.70;99.90
37356;DHT22;48747;50.250;18.848;2024-02-26T07:12:37;5.70;99.90
37356;DHT22;48747;50.250;18.848;2024-02-26T07:14:40;5.80;99.90
37356;DHT22;48747;50.250;18.848;2024-02-26T07:16:43;5.80;99.90
37356;DHT22;48747;50.250;18.848;2024-02-26T07:18:46;5.90;99.90
37356;DHT22;48747;50.250;18.848;2024-02-26T07:20:49;6.00;99.90
37356;DHT22;48747;50.250;18.848;2024-02-26T07:22:52;6.10;99.90
37356;DHT22;48747;50.250;18.848;2024-02-26T07:24:55;6.10;99.90
37356;DHT22;48747;50.250;18.848;2024-02-26T07:26:58;6.10;99.90
37356;DHT22;48747;50.250;18.848;2024-02-26T07:29:01;6.20;99.90
37356;DHT22;48747;50.250;18.848;2024-02-26T07:31:06;6.30;99.90
37356;DHT22;48747;50.250;18.848;2024-02-26T07:33:09;6.40;99.90
37356;DHT22;48747;50.250;18.848;2024-02-26T07:35:12;6.60;99.90
37356;DHT22;48747;50.250;18.848;2024-02-26T07:37:15;6.80;99.90
37356;DHT22;48747;50.250;18.848;2024-02-26T07:39:18;7.00;99.90
37356;DHT22;48747;50.250;18.848;2024-02-26T07:41:21;7.10;99.90
37356;DHT22;48747;50.250;18.848;2024-02-26T07:43:24;7.30;99.90
37356;DHT22;48747;50.250;18.848;2024-02-26T07:45:27;7.50;99.90
37356;DHT22;48747;50.250;18.848;2024-02-26T07:47:30;7.70;99.90
37356;DHT22;48747;50.250;18.848;2024-02-26T07:49:33;7.80;99.90
37356;DHT22;48747;50.250;18.848;2024-02-26T07:51:36;8.00;99.90
37356;DHT22;48747;50.250;18.848;2024-02-26T07:53:39;8.10;99.90
37356;DHT22;48747;50.250;18.848;2024-02-26T07:55:42;8.30;99.90
37356;DHT22;48747;50.250;18.848;2024-02-26T07:57:45;8.40;99.90
37356;DHT22;48747;50.250;18.848;2024-02-26T07:59:48;8.50;99.90
37356;DHT22;48747;50.250;18.848;2024-02-26T08:01:51;8.60;99.90
37356;DHT22;48747;50.250;18.848;2024-02-26T08:03:55;8.60;99.90
37356;DHT22;48747;50.250;18.848;2024-02-26T08:05:58;8.60;99.90
37356;DHT22;48747;50.250;18.848;2024-02-26T08:08:01;8.60;99.90
37356;DHT22;48747;50.250;18.848;2024-02-26T08:10:04;8.50;99.90
37356;DHT22;48747;50.250;18.848;2024-02-26T08:12:07;8.50;99.90
37356;DHT22;48747;50.250;18.848;2024-02-26T08:14:10;8.50;99.90
37356;DHT22;48747;50.250;18.848;2024-02-26T08:16:13;8.50;99.90
37356;DHT22;48747;50.250;18.848;2024-02-26T08:18:16;8.50;99.90
37356;DHT22;48747;50.250;18.848;2024-02-26T08:20:19;8.50;99.90
37356;DHT22;48747;50.250;18.848;2024-02-26T08:22:22;8.50;99.90
37356;DHT22;48747;50.250;18.848;2024-02-26T08:24:25;8.60;99.90
37356;DHT22;48747;50.250;18.848;2024-02-26T08:26:28;8.60;99.90
37356;DHT22;48747;50.250;18.848;2024-02-26T08:28:31;8.70;99.90
37356;DHT22;48747;50.250;18.848;2024-02-26T08:30:34;8.70;99.90
37356;DHT22;48747;50.250;18.848;2024-02-26T08:32:37;8.80;99.90
37356;DHT22;48747;50.250;18.848;2024-02-26T08:34:40;8.80;99.90
37356;DHT22;48747;50.250;18.848;2024-02-26T08:36:44;8.80;99.90
37356;DHT22;48747;50.250;18.848;2024-02-26T08:38:47;8.90;99.90
37356;DHT22;48747;50.250;18.848;2024-02-26T08:40:50;9.00;99.90
37356;DHT22;48747;50.250;18.848;2024-02-26T08:42:53;9.10;99.90
37356;DHT22;48747;50.250;18.848;2024-02-26T08:44:56;9.30;99.90
37356;DHT22;48747;50.250;18.848;2024-02-26T08:47:01;9.50;99.90
37356;DHT22;48747;50.250;18.848;2024-02-26T08:49:04;9.50;99.90
37356;DHT22;48747;50.250;18.848;2024-02-26T08:51:08;9.60;99.90
37356;DHT22;48747;50.250;18.848;2024-02-26T08:53:11;9.60;99.90
37356;DHT22;48747;50.250;18.848;2024-02-26T08:55:14;9.60;99.90
37356;DHT22;48747;50.250;18.848;2024-02-26T08:57:17;9.70;99.90
37356;DHT22;48747;50.250;18.848;2024-02-26T08:59:20;9.80;99.90
37356;DHT22;48747;50.250;18.848;2024-02-26T09:01:25;10.00;99.90
37356;DHT22;48747;50.250;18.848;2024-02-26T09:03:28;10.10;99.90
37356;DHT22;48747;50.250;18.848;2024-02-26T09:05:31;10.30;99.90
37356;DHT22;48747;50.250;18.848;2024-02-26T09:07:35;10.50;99.90
37356;DHT22;48747;50.250;18.848;2024-02-26T09:09:38;10.70;99.90
37356;DHT22;48747;50.250;18.848;2024-02-26T09:11:41;10.90;99.90
37356;DHT22;48747;50.250;18.848;2024-02-26T09:13:44;11.00;99.90
37356;DHT22;48747;50.250;18.848;2024-02-26T09:15:47;11.10;99.90
37356;DHT22;48747;50.250;18.848;2024-02-26T09:17:50;11.20;99.90
37356;DHT22;48747;50.250;18.848;2024-02-26T09:19:54;11.30;99.90
37356;DHT22;48747;50.250;18.848;2024-02-26T09:21:57;11.40;99.90
37356;DHT22;48747;50.250;18.848;2024-02-26T09:24:00;11.50;99.90
37356;DHT22;48747;50.250;18.848;2024-02-26T09:26:07;11.70;99.90
37356;DHT22;48747;50.250;18.848;2024-02-26T09:28:11;11.80;99.90
37356;DHT22;48747;50.250;18.848;2024-02-26T09:30:14;11.80;99.90
37356;DHT22;48747;50.250;18.848;2024-02-26T09:32:17;11.70;99.90
37356;DHT22;48747;50.250;18.848;2024-02-26T09:34:20;11.60;99.90
37356;DHT22;48747;50.250;18.848;2024-02-26T09:36:23;11.50;99.90
37356;DHT22;48747;50.250;18.848;2024-02-26T09:38:26;11.50;99.90
37356;DHT22;48747;50.250;18.848;2024-02-26T09:40:30;11.50;99.90
37356;DHT22;48747;50.250;18.848;2024-02-26T09:42:35;11.60;99.90
37356;DHT22;48747;50.250;18.848;2024-02-26T09:44:40;11.80;99.90
37356;DHT22;48747;50.250;18.848;2024-02-26T09:46:47;11.90;99.90
37356;DHT22;48747;50.250;18.848;2024-02-26T09:48:51;12.10;99.90
37356;DHT22;48747;50.250;18.848;2024-02-26T09:50:55;12.20;99.90
37356;DHT22;48747;50.250;18.848;2024-02-26T09:52:58;12.20;99.90
37356;DHT22;48747;50.250;18.848;2024-02-26T09:55:04;12.30;99.90
37356;DHT22;48747;50.250;18.848;2024-02-26T09:57:09;12.40;99.90
37356;DHT22;48747;50.250;18.848;2024-02-26T09:59:16;12.40;99.90
37356;DHT22;48747;50.250;18.848;2024-02-26T10:01:20;12.50;99.90
37356;DHT22;48747;50.250;18.848;2024-02-26T10:03:31;12.60;99.90
37356;DHT22;48747;50.250;18.848;2024-02-26T10:05:35;12.70;99.90
37356;DHT22;48747;50.250;18.848;2024-02-26T10:07:40;12.80;99.90
37356;DHT22;48747;50.250;18.848;2024-02-26T10:09:45;12.90;99.90
37356;DHT22;48747;50.250;18.848;2024-02-26T10:11:49;12.90;99.90
37356;DHT22;48747;50.250;18.848;2024-02-26T10:13:52;12.90;99.90
37356;DHT22;48747;50.250;18.848;2024-02-26T10:15:55;12.90;99.90
37356;DHT22;48747;50.250;18.848;2024-02-26T10:17:59;13.00;99.90
37356;DHT22;48747;50.250;18.848;2024-02-26T10:20:17;13.20;99.90
37356;DHT22;48747;50.250;18.848;2024-02-26T10:22:22;13.20;99.90
37356;DHT22;48747;50.250;18.848;2024-02-26T10:24:29;13.20;98.70
37356;DHT22;48747;50.250;18.848;2024-02-26T10:26:32;13.30;99.00
37356;DHT22;48747;50.250;18.848;2024-02-26T10:28:36;13.40;99.10
37356;DHT22;48747;50.250;18.848;2024-02-26T10:30:39;13.50;98.50
37356;DHT22;48747;50.250;18.848;2024-02-26T10:32:45;13.50;98.60
37356;DHT22;48747;50.250;18.848;2024-02-26T10:34:48;13.60;98.00
37356;DHT22;48747;50.250;18.848;2024-02-26T10:36:54;13.60;97.00
37356;DHT22;48747;50.250;18.848;2024-02-26T10:38:57;13.70;97.20
37356;DHT22;48747;50.250;18.848;2024-02-26T10:41:01;13.70;97.10
37356;DHT22;48747;50.250;18.848;2024-02-26T10:43:05;13.80;96.70
37356;DHT22;48747;50.250;18.848;2024-02-26T10:45:09;13.80;95.90
37356;DHT22;48747;50.250;18.848;2024-02-26T10:47:13;13.80;95.90
37356;DHT22;48747;50.250;18.848;2024-02-26T10:49:16;13.90;96.00
37356;DHT22;48747;50.250;18.848;2024-02-26T10:51:28;13.90;95.90
37356;DHT22;48747;50.250;18.848;2024-02-26T10:53:33;13.90;95.40
37356;DHT22;48747;50.250;18.848;2024-02-26T10:55:38;13.90;94.60
37356;DHT22;48747;50.250;18.848;2024-02-26T10:57:41;13.90;95.00
37356;DHT22;48747;50.250;18.848;2024-02-26T10:59:46;13.90;94.60
37356;DHT22;48747;50.250;18.848;2024-02-26T11:01:51;13.90;94.90
37356;DHT22;48747;50.250;18.848;2024-02-26T11:03:54;13.90;95.20
37356;DHT22;48747;50.250;18.848;2024-02-26T11:05:58;13.90;95.10
37356;DHT22;48747;50.250;18.848;2024-02-26T11:08:03;13.90;94.90
37356;DHT22;48747;50.250;18.848;2024-02-26T11:10:07;13.90;94.80
37356;DHT22;48747;50.250;18.848;2024-02-26T11:12:12;13.80;95.60
37356;DHT22;48747;50.250;18.848;2024-02-26T11:14:16;13.90;95.30
37356;DHT22;48747;50.250;18.848;2024-02-26T11:16:21;13.90;95.30
37356;DHT22;48747;50.250;18.848;2024-02-26T11:18:26;14.00;95.70
37356;DHT22;48747;50.250;18.848;2024-02-26T11:20:30;14.20;96.30
37356;DHT22;48747;50.250;18.848;2024-02-26T11:22:34;14.30;95.10
37356;DHT22;48747;50.250;18.848;2024-02-26T11:24:38;14.30;94.60
37356;DHT22;48747;50.250;18.848;2024-02-26T11:26:48;14.40;94.30
37356;DHT22;48747;50.250;18.848;2024-02-26T11:28:50;14.50;94.30
37356;DHT22;48747;50.250;18.848;2024-02-26T11:30:55;14.50;94.20
37356;DHT22;48747;50.250;18.848;2024-02-26T11:33:05;14.60;94.60
37356;DHT22;48747;50.250;18.848;2024-02-26T11:35:06;14.60;93.10
37356;DHT22;48747;50.250;18.848;2024-02-26T11:37:11;14.50;93.10
37356;DHT22;48747;50.250;18.848;2024-02-26T11:39:15;14.50;93.30
37356;DHT22;48747;50.250;18.848;2024-02-26T11:41:18;14.50;93.70
37356;DHT22;48747;50.250;18.848;2024-02-26T11:43:53;14.60;93.50
37356;DHT22;48747;50.250;18.848;2024-02-26T11:45:56;14.60;93.10
37356;DHT22;48747;50.250;18.848;2024-02-26T11:48:01;14.70;93.20
37356;DHT22;48747;50.250;18.848;2024-02-26T11:52:22;14.90;93.80
37356;DHT22;48747;50.250;18.848;2024-02-26T11:56:50;14.80;92.70
37356;DHT22;48747;50.250;18.848;2024-02-26T11:58:56;14.80;92.40
37356;DHT22;48747;50.250;18.848;2024-02-26T12:00:58;14.80;91.60
37356;DHT22;48747;50.250;18.848;2024-02-26T12:03:01;14.80;92.60
37356;DHT22;48747;50.250;18.848;2024-02-26T12:05:25;14.80;92.50
37356;DHT22;48747;50.250;18.848;2024-02-26T12:07:26;14.80;92.30
37356;DHT22;48747;50.250;18.848;2024-02-26T12:09:39;14.80;92.40
37356;DHT22;48747;50.250;18.848;2024-02-26T12:11:43;14.80;92.30
37356;DHT22;48747;50.250;18.848;2024-02-26T12:13:48;14.70;92.70
37356;DHT22;48747;50.250;18.848;2024-02-26T12:18:02;14.70;93.40
37356;DHT22;48747;50.250;18.848;2024-02-26T12:20:10;14.70;93.00
37356;DHT22;48747;50.250;18.848;2024-02-26T12:22:14;14.60;93.30
37356;DHT22;48747;50.250;18.848;2024-02-26T12:24:18;14.50;94.10
37356;DHT22;48747;50.250;18.848;2024-02-26T12:26:22;14.50;94.20
37356;DHT22;48747;50.250;18.848;2024-02-26T12:28:29;14.60;94.00
37356;DHT22;48747;50.250;18.848;2024-02-26T12:30:32;14.60;93.30
37356;DHT22;48747;50.250;18.848;2024-02-26T12:32:36;14.60;93.80
37356;DHT22;48747;50.250;18.848;2024-02-26T12:34:39;14.50;94.30
37356;DHT22;48747;50.250;18.848;2024-02-26T12:36:42;14.50;93.40
37356;DHT22;48747;50.250;18.848;2024-02-26T12:38:45;14.50;93.90
37356;DHT22;48747;50.250;18.848;2024-02-26T12:40:49;14.50;94.50
37356;DHT22;48747;50.250;18.848;2024-02-26T12:42:54;14.40;94.60
37356;DHT22;48747;50.250;18.848;2024-02-26T12:45:00;14.30;95.00
37356;DHT22;48747;50.250;18.848;2024-02-26T12:47:04;14.20;95.60
37356;DHT22;48747;50.250;18.848;2024-02-26T12:49:07;14.10;95.60
37356;DHT22;48747;50.250;18.848;2024-02-26T12:51:14;14.00;95.90
37356;DHT22;48747;50.250;18.848;2024-02-26T12:53:18;13.90;96.80
37356;DHT22;48747;50.250;18.848;2024-02-26T12:55:21;13.80;97.80
37356;DHT22;48747;50.250;18.848;2024-02-26T12:57:25;13.70;98.50
37356;DHT22;48747;50.250;18.848;2024-02-26T12:59:29;13.60;99.00
37356;DHT22;48747;50.250;18.848;2024-02-26T13:01:33;13.70;99.60
37356;DHT22;48747;50.250;18.848;2024-02-26T13:03:36;13.80;99.30
37356;DHT22;48747;50.250;18.848;2024-02-26T13:05:40;13.90;99.10